Time;durP1;ratioP1;P1;durP2;ratioP2;P2;SDS_P1;SDS_P2;PMS_P1;PMS_P2;Temp;Humidity;BMP_temperature;BMP_pressure;BME280_temperature;BME280_humidity;BME280_pressure;Samples;Min_cycle;Max_cycle;Signal;HPM_P1;HPM_P2
2021/03/21 00:01:17;;;;;;;4.60;3.60;;;1.50;75.00;;;;;;5042163;28;20236;-71
2021/03/21 00:03:44;;;;;;;4.70;3.63;;;1.50;75.00;;;;;;5042898;28;20303;-71
2021/03/21 00:06:10;;;;;;;5.38;3.53;;;1.60;75.50;;;;;;5042305;28;20256;-71
2021/03/21 00:08:37;;;;;;;3.50;2.90;;;1.50;75.30;;;;;;5042159;28;20205;-70
2021/03/21 00:11:06;;;;;;;3.83;3.40;;;1.60;76.30;;;;;;5042378;28;20227;-71
2021/03/21 00:13:33;;;;;;;2.80;2.60;;;1.60;75.70;;;;;;5042284;28;21167;-71
2021/03/21 00:16:01;;;;;;;3.78;3.25;;;1.60;75.60;;;;;;5042897;28;20225;-71
2021/03/21 00:18:32;;;;;;;5.88;4.15;;;1.60;76.10;;;;;;5043182;28;20213;-71
2021/03/21 00:20:58;;;;;;;3.70;3.30;;;1.60;75.00;;;;;;5043481;28;20225;-69
2021/03/21 00:23:25;;;;;;;3.00;2.70;;;1.60;74.80;;;;;;5043877;28;20216;-69
2021/03/21 00:25:52;;;;;;;3.92;3.00;;;1.60;74.60;;;;;;5043648;28;20217;-69
2021/03/21 00:28:22;;;;;;;4.35;3.60;;;1.60;75.30;;;;;;5043614;28;20292;-70
2021/03/21 00:30:51;;;;;;;4.05;3.30;;;1.60;75.40;;;;;;5043692;28;20278;-70
2021/03/21 00:33:21;;;;;;;4.97;3.80;;;1.60;75.20;;;;;;5043467;28;20324;-68
2021/03/21 00:35:48;;;;;;;6.80;3.05;;;1.50;75.00;;;;;;5043618;28;20208;-69
2021/03/21 00:38:18;;;;;;;4.97;3.20;;;1.60;75.10;;;;;;5044251;28;20212;-70
2021/03/21 00:40:45;;;;;;;5.75;2.95;;;1.60;75.50;;;;;;5043510;28;20197;-71
2021/03/21 00:43:12;;;;;;;4.70;3.60;;;1.70;75.70;;;;;;5044072;28;20254;-70
2021/03/21 00:45:38;;;;;;;4.78;3.20;;;1.70;75.00;;;;;;5047831;28;20220;-68
2021/03/21 00:48:11;;;;;;;6.75;2.95;;;1.70;75.00;;;;;;5048567;28;20220;-70
2021/03/21 00:50:38;;;;;;;3.92;3.30;;;1.60;74.90;;;;;;5048007;28;20263;-70
2021/03/21 00:53:04;;;;;;;5.50;3.38;;;1.70;74.80;;;;;;5048591;28;20208;-70
2021/03/21 00:55:31;;;;;;;3.45;3.15;;;1.70;75.00;;;;;;5048815;28;20205;-69
2021/03/21 00:57:57;;;;;;;4.80;3.13;;;1.70;75.70;;;;;;5048190;28;20215;-69
2021/03/21 01:00:27;;;;;;;4.28;2.95;;;1.70;75.10;;;;;;5047461;28;20209;-69
2021/03/21 01:02:54;;;;;;;3.90;3.45;;;1.70;75.40;;;;;;5048293;28;20217;-69
2021/03/21 01:05:27;;;;;;;4.85;4.07;;;1.70;74.90;;;;;;5049599;28;20793;-70
2021/03/21 01:07:55;;;;;;;4.90;3.50;;;1.60;75.20;;;;;;5050896;28;20215;-69
2021/03/21 01:10:26;;;;;;;4.85;4.05;;;1.60;74.70;;;;;;5050033;28;20216;-70
2021/03/21 01:12:53;;;;;;;5.30;3.50;;;1.60;74.60;;;;;;5051190;28;20729;-69
2021/03/21 01:15:21;;;;;;;4.68;4.22;;;1.50;75.20;;;;;;5050383;28;20201;-69
2021/03/21 01:17:48;;;;;;;6.28;3.92;;;1.50;75.60;;;;;;5050990;28;20215;-70
2021/03/21 01:20:14;;;;;;;4.05;3.50;;;1.60;75.80;;;;;;5050274;28;20255;-69
2021/03/21 01:22:41;;;;;;;4.38;3.50;;;1.60;75.60;;;;;;5049987;28;20625;-71
2021/03/21 01:25:09;;;;;;;10.13;3.67;;;1.60;75.40;;;;;;5049849;28;20225;-69
2021/03/21 01:27:35;;;;;;;4.50;3.60;;;1.60;76.20;;;;;;5050156;28;20240;-71
2021/03/21 01:30:01;;;;;;;3.75;3.33;;;1.70;74.70;;;;;;5049584;28;20217;-71
2021/03/21 01:32:28;;;;;;;4.30;3.40;;;1.70;75.20;;;;;;5049316;28;20271;-70
2021/03/21 01:34:54;;;;;;;4.95;3.42;;;1.70;74.90;;;;;;5045987;28;20274;-70
2021/03/21 01:37:20;;;;;;;4.32;3.92;;;1.70;75.20;;;;;;5051325;28;20212;-70
2021/03/21 01:39:47;;;;;;;4.95;3.95;;;1.80;75.20;;;;;;5123039;22;20211;-74
2021/03/21 01:42:15;;;;;;;3.83;3.08;;;1.80;76.10;;;;;;5071429;28;20227;-72
2021/03/21 01:44:41;;;;;;;4.50;3.70;;;1.80;75.40;;;;;;5070982;28;20243;-74
2021/03/21 01:47:22;;;;;;;5.18;3.85;;;1.80;75.80;;;;;;5071554;28;20196;-74
2021/03/21 01:49:49;;;;;;;4.75;3.67;;;1.80;74.90;;;;;;5070713;28;20223;-73
2021/03/21 01:52:37;;;;;;;5.25;3.42;;;1.80;75.30;;;;;;5071163;28;20223;-74
2021/03/21 01:55:08;;;;;;;3.85;3.30;;;1.70;74.70;;;;;;5068131;28;20681;-74
2021/03/21 01:57:36;;;;;;;3.65;3.15;;;1.60;75.30;;;;;;5071203;28;20685;-73
2021/03/21 02:00:05;;;;;;;4.07;3.25;;;1.70;75.00;;;;;;5070682;28;20608;-73
2021/03/21 02:02:31;;;;;;;4.50;3.40;;;1.60;74.90;;;;;;5071253;28;20250;-73
2021/03/21 02:04:57;;;;;;;3.63;3.33;;;1.60;74.60;;;;;;5071129;28;20235;-73
2021/03/21 02:07:41;;;;;;;3.95;3.33;;;1.60;74.80;;;;;;5071727;28;20662;-73
2021/03/21 02:10:15;;;;;;;5.25;3.50;;;1.60;74.90;;;;;;5070726;28;20211;-72
2021/03/21 02:12:53;;;;;;;6.60;3.70;;;1.70;75.00;;;;;;5071136;28;20216;-73
2021/03/21 02:15:23;;;;;;;3.28;2.67;;;1.70;74.90;;;;;;5071007;28;20224;-73
2021/03/21 02:17:58;;;;;;;4.22;3.00;;;1.70;74.80;;;;;;5071056;28;20663;-73
2021/03/21 02:20:45;;;;;;;5.13;3.20;;;1.70;74.50;;;;;;5070646;28;20215;-72
2021/03/21 02:23:16;;;;;;;3.95;3.25;;;1.60;74.10;;;;;;5070927;28;20204;-73
2021/03/21 02:26:07;;;;;;;3.60;3.15;;;1.60;74.40;;;;;;5070786;28;20219;-73
2021/03/21 02:29:10;;;;;;;5.25;3.55;;;1.50;74.30;;;;;;5070282;28;20610;-73
2021/03/21 02:31:42;;;;;;;2.92;2.72;;;1.60;73.60;;;;;;5069829;28;20232;-73
2021/03/21 02:34:15;;;;;;;6.07;3.15;;;1.50;73.80;;;;;;5068281;28;20208;-73
2021/03/21 02:36:46;;;;;;;8.07;4.03;;;1.50;74.60;;;;;;5070738;28;20667;-73
2021/03/21 02:39:19;;;;;;;4.60;3.25;;;1.50;74.50;;;;;;5070084;28;20204;-73
2021/03/21 02:41:52;;;;;;;4.20;3.30;;;1.50;75.60;;;;;;5070352;28;20232;-73
2021/03/21 02:44:25;;;;;;;5.18;3.17;;;1.60;75.50;;;;;;5070453;28;20231;-73
2021/03/21 02:46:55;;;;;;;3.53;2.92;;;1.50;75.90;;;;;;5070652;28;20201;-73
2021/03/21 02:49:26;;;;;;;4.85;3.50;;;1.60;74.90;;;;;;5070045;28;20200;-73
2021/03/21 02:51:55;;;;;;;3.75;3.40;;;1.50;74.90;;;;;;5070112;28;20277;-73
2021/03/21 02:54:26;;;;;;;4.47;2.75;;;1.60;75.90;;;;;;5070384;28;20200;-73
2021/03/21 02:56:59;;;;;;;3.30;3.00;;;1.60;76.00;;;;;;5070132;28;20212;-73
2021/03/21 02:59:30;;;;;;;4.15;3.45;;;1.60;75.80;;;;;;5069773;28;20257;-73
2021/03/21 03:02:01;;;;;;;4.07;3.03;;;1.60;75.80;;;;;;5069854;28;20220;-73
2021/03/21 03:04:31;;;;;;;3.28;2.67;;;1.70;75.60;;;;;;5070222;28;20209;-73
2021/03/21 03:07:03;;;;;;;3.55;2.97;;;1.60;75.20;;;;;;5069261;28;20204;-73
2021/03/21 03:09:35;;;;;;;3.55;3.20;;;1.60;75.60;;;;;;5069502;28;20682;-73
2021/03/21 03:12:08;;;;;;;3.88;3.10;;;1.60;76.00;;;;;;5069816;28;20227;-74
2021/03/21 03:14:38;;;;;;;3.22;2.92;;;1.70;76.30;;;;;;5069663;28;20207;-73
2021/03/21 03:17:10;;;;;;;3.40;3.10;;;1.60;76.70;;;;;;5070037;28;20226;-73
2021/03/21 03:19:44;;;;;;;3.95;3.45;;;1.70;76.40;;;;;;5068984;28;20977;-74
2021/03/21 03:22:21;;;;;;;4.90;3.00;;;1.70;76.70;;;;;;5069922;28;20224;-73
2021/03/21 03:25:01;;;;;;;4.30;3.10;;;1.70;76.50;;;;;;5070002;28;20241;-72
2021/03/21 03:27:35;;;;;;;5.03;3.28;;;1.80;76.50;;;;;;5070191;28;20715;-72
2021/03/21 03:30:10;;;;;;;3.80;3.45;;;1.80;77.80;;;;;;5069298;28;20671;-73
2021/03/21 03:32:37;;;;;;;3.72;3.20;;;1.80;76.40;;;;;;5069566;28;20216;-73
2021/03/21 03:35:07;;;;;;;5.20;3.10;;;1.70;76.20;;;;;;5069793;28;20325;-74
2021/03/21 03:37:33;;;;;;;3.30;2.90;;;1.70;77.40;;;;;;5069384;28;20205;-74
2021/03/21 03:40:00;;;;;;;5.05;3.90;;;1.70;76.60;;;;;;5068754;28;20209;-73
2021/03/21 03:42:35;;;;;;;4.57;3.38;;;1.70;76.90;;;;;;5069323;28;20594;-72
2021/03/21 03:45:10;;;;;;;5.55;3.78;;;1.70;76.80;;;;;;5069464;28;20224;-74
2021/03/21 03:47:47;;;;;;;4.63;3.70;;;1.70;77.50;;;;;;5069139;28;20211;-73
2021/03/21 03:50:21;;;;;;;6.88;3.80;;;1.60;77.90;;;;;;5069045;28;20265;-73
2021/03/21 03:53:05;;;;;;;4.60;3.45;;;1.60;78.10;;;;;;5069139;28;20278;-73
2021/03/21 03:55:40;;;;;;;4.95;3.55;;;1.60;78.00;;;;;;5069062;28;20204;-72
2021/03/21 03:58:10;;;;;;;4.15;3.28;;;1.60;79.50;;;;;;5069212;28;20727;-73
2021/03/21 04:00:40;;;;;;;4.18;3.13;;;1.60;78.80;;;;;;5068242;28;20204;-74
2021/03/21 04:03:15;;;;;;;4.00;3.55;;;1.70;78.60;;;;;;5069190;28;20200;-73
2021/03/21 04:05:46;;;;;;;4.13;3.20;;;1.70;78.60;;;;;;5068769;28;20827;-73
2021/03/21 04:08:23;;;;;;;3.92;3.05;;;1.70;78.90;;;;;;5069245;28;20721;-73
2021/03/21 04:10:58;;;;;;;4.72;3.25;;;1.70;79.10;;;;;;5068118;28;20231;-73
2021/03/21 04:13:29;;;;;;;4.30;3.78;;;1.70;79.20;;;;;;5068996;28;20215;-74
2021/03/21 04:15:58;;;;;;;4.30;3.17;;;1.70;79.20;;;;;;5069031;28;20564;-73
2021/03/21 04:18:28;;;;;;;5.10;4.00;;;1.70;78.90;;;;;;5068604;28;20204;-73
2021/03/21 04:21:06;;;;;;;3.60;3.30;;;1.70;79.10;;;;;;5068343;28;20706;-73
2021/03/21 04:23:37;;;;;;;3.72;3.42;;;1.70;80.10;;;;;;5068661;28;20200;-73
2021/03/21 04:26:09;;;;;;;4.20;3.70;;;1.70;80.90;;;;;;5068951;28;20227;-73
2021/03/21 04:28:41;;;;;;;3.85;3.28;;;1.80;80.50;;;;;;5067979;28;20852;-73
2021/03/21 04:31:11;;;;;;;4.82;3.22;;;1.70;79.70;;;;;;5068837;28;20231;-73
2021/03/21 04:33:42;;;;;;;4.60;3.08;;;1.70;80.00;;;;;;5068570;28;20380;-73
2021/03/21 04:36:12;;;;;;;5.22;3.63;;;1.70;80.90;;;;;;5068891;28;20539;-74
2021/03/21 04:38:44;;;;;;;3.90;3.20;;;1.70;80.40;;;;;;5067947;28;20204;-73
2021/03/21 04:41:15;;;;;;;4.53;3.60;;;1.70;80.70;;;;;;5069008;28;20242;-74
2021/03/21 04:43:45;;;;;;;3.35;3.05;;;1.80;81.10;;;;;;5068586;28;20211;-73
2021/03/21 04:46:18;;;;;;;4.20;3.80;;;1.80;81.50;;;;;;5068620;28;20216;-73
2021/03/21 04:48:45;;;;;;;4.63;3.90;;;1.80;82.10;;;;;;5068223;28;20247;-73
2021/03/21 04:51:17;;;;;;;3.92;3.50;;;1.80;82.40;;;;;;5068211;28;20225;-73
2021/03/21 04:53:46;;;;;;;5.45;3.15;;;1.90;82.30;;;;;;5068387;28;20211;-73
2021/03/21 04:56:20;;;;;;;3.78;3.30;;;1.90;82.00;;;;;;5068556;28;20671;-73
2021/03/21 04:58:49;;;;;;;4.32;3.92;;;1.80;81.10;;;;;;5067498;28;20238;-74
2021/03/21 05:01:20;;;;;;;4.75;3.70;;;1.80;82.00;;;;;;5068425;28;20220;-73
2021/03/21 05:03:53;;;;;;;6.88;3.65;;;1.80;84.00;;;;;;5068180;28;20208;-74
2021/03/21 05:06:23;;;;;;;8.40;3.60;;;1.80;82.50;;;;;;5068631;28;20224;-74
2021/03/21 05:08:54;;;;;;;4.30;3.28;;;1.80;81.30;;;;;;5067536;28;20212;-73
2021/03/21 05:11:22;;;;;;;4.47;3.30;;;1.80;81.60;;;;;;5068531;28;20232;-73
2021/03/21 05:13:55;;;;;;;3.90;3.45;;;1.70;82.10;;;;;;5068077;28;20201;-73
2021/03/21 05:16:26;;;;;;;4.32;3.72;;;1.70;81.60;;;;;;5068519;28;20207;-73
2021/03/21 05:18:59;;;;;;;4.38;3.80;;;1.70;82.00;;;;;;5067875;28;20223;-73
2021/03/21 05:21:33;;;;;;;5.93;3.13;;;1.70;82.00;;;;;;5068074;28;20232;-74
2021/03/21 05:24:05;;;;;;;4.40;3.40;;;1.70;82.50;;;;;;5068094;28;20215;-74
2021/03/21 05:26:37;;;;;;;6.20;3.90;;;1.80;83.00;;;;;;5068097;28;20220;-73
2021/03/21 05:29:34;;;;;;;4.13;3.38;;;1.80;82.60;;;;;;5068557;28;20565;-72
2021/03/21 05:32:02;;;;;;;3.90;3.30;;;1.80;83.40;;;;;;5071892;28;20228;-74
2021/03/21 05:34:29;;;;;;;3.67;3.35;;;1.80;83.00;;;;;;5071914;28;20298;-74
2021/03/21 05:37:05;;;;;;;3.60;3.30;;;1.80;83.30;;;;;;5071573;28;20246;-74
2021/03/21 05:39:42;;;;;;;4.20;3.80;;;1.80;83.20;;;;;;5070838;28;20208;-74
2021/03/21 05:42:44;;;;;;;4.35;3.58;;;1.90;83.30;;;;;;5071592;28;20224;-74
2021/03/21 05:46:00;;;;;;;3.83;3.50;;;1.90;83.60;;;;;;5071660;28;20220;-73
2021/03/21 05:48:56;;;;;;;4.78;3.03;;;1.90;82.50;;;;;;5067414;28;20204;-73
2021/03/21 05:51:55;;;;;;;4.80;4.03;;;1.80;83.90;;;;;;5071512;28;20220;-73
2021/03/21 05:55:07;;;;;;;5.00;3.90;;;1.90;84.30;;;;;;5067533;28;20207;-72
2021/03/21 05:58:06;;;;;;;3.40;3.10;;;1.90;85.10;;;;;;5043282;28;20212;-72
2021/03/21 06:01:07;;;;;;;4.70;3.25;;;1.80;84.20;;;;;;5070429;28;20575;-72
2021/03/21 06:04:11;;;;;;;7.15;3.97;;;1.90;84.50;;;;;;5066250;28;20208;-73
2021/03/21 06:07:17;;;;;;;3.65;3.35;;;1.80;83.70;;;;;;5070758;28;20284;-73
2021/03/21 06:10:00;;;;;;;4.35;3.20;;;1.90;83.20;;;;;;5065368;28;20200;-72
2021/03/21 06:12:54;;;;;;;3.83;3.25;;;1.90;83.80;;;;;;5070978;28;20228;-73
2021/03/21 06:16:00;;;;;;;4.10;3.70;;;1.90;84.10;;;;;;5071114;28;20208;-73
2021/03/21 06:18:49;;;;;;;4.45;3.78;;;1.90;83.80;;;;;;5059470;28;20204;-73
2021/03/21 06:21:31;;;;;;;3.72;3.08;;;1.80;83.30;;;;;;5051014;28;20312;-72
2021/03/21 06:24:31;;;;;;;4.05;3.50;;;1.70;83.70;;;;;;5051047;28;20208;-73
2021/03/21 06:27:21;;;;;;;4.25;3.60;;;1.70;84.30;;;;;;5050989;28;20715;-73
2021/03/21 06:30:14;;;;;;;4.18;3.75;;;1.70;84.20;;;;;;5050216;28;20374;-73
2021/03/21 06:33:02;;;;;;;4.88;3.72;;;1.70;84.20;;;;;;5050656;28;20605;-73
2021/03/21 06:36:01;;;;;;;4.18;3.30;;;1.70;84.40;;;;;;5050807;28;20783;-73
2021/03/21 06:39:02;;;;;;;4.28;3.60;;;1.70;84.60;;;;;;5051023;28;20207;-73
2021/03/21 06:41:51;;;;;;;4.40;3.60;;;1.80;85.00;;;;;;5050537;28;20225;-70
2021/03/21 06:44:51;;;;;;;4.22;3.28;;;1.80;85.90;;;;;;5048495;28;20209;-71
2021/03/21 06:47:27;;;;;;;3.33;2.97;;;1.80;85.00;;;;;;5050844;28;20216;-71
2021/03/21 06:50:09;;;;;;;5.20;3.90;;;1.90;85.60;;;;;;5049398;28;20208;-71
2021/03/21 06:52:44;;;;;;;3.88;3.47;;;1.90;86.00;;;;;;5049965;28;20225;-71
2021/03/21 06:55:17;;;;;;;5.50;3.40;;;2.00;85.70;;;;;;5050358;28;20208;-71
2021/03/21 06:58:29;;;;;;;4.05;3.75;;;2.10;86.10;;;;;;5050000;28;20284;-71
2021/03/21 07:01:19;;;;;;;5.13;3.90;;;2.10;86.20;;;;;;5049795;28;20229;-71
2021/03/21 07:04:24;;;;;;;3.55;3.25;;;2.20;87.60;;;;;;5049875;28;20213;-71
2021/03/21 07:07:45;;;;;;;4.85;3.30;;;2.20;87.50;;;;;;5051971;28;20246;-71
2021/03/21 07:10:53;;;;;;;3.63;3.10;;;2.30;86.50;;;;;;5056734;28;20205;-71
2021/03/21 07:14:07;;;;;;;4.22;3.15;;;2.30;85.70;;;;;;5049511;28;20212;-70
2021/03/21 07:17:08;;;;;;;4.55;3.60;;;2.40;85.40;;;;;;5030450;28;20201;-71
2021/03/21 07:20:05;;;;;;;4.20;3.15;;;2.40;85.10;;;;;;5048912;28;20200;-71
2021/03/21 07:23:05;;;;;;;3.10;2.90;;;2.30;84.90;;;;;;5049535;28;20231;-71
2021/03/21 07:25:56;;;;;;;3.83;3.40;;;2.30;85.00;;;;;;5049524;28;20242;-71
2021/03/21 07:28:56;;;;;;;4.50;3.20;;;2.30;85.20;;;;;;5049709;28;20205;-71
2021/03/21 07:31:38;;;;;;;4.15;2.92;;;2.30;84.90;;;;;;5035785;28;20743;-71
2021/03/21 07:34:23;;;;;;;4.70;3.28;;;2.30;85.60;;;;;;5050024;28;20212;-70
2021/03/21 07:36:57;;;;;;;3.70;3.38;;;2.40;86.30;;;;;;5049448;28;20205;-71
2021/03/21 07:39:35;;;;;;;3.50;2.55;;;2.40;86.30;;;;;;5049133;28;20200;-72
2021/03/21 07:42:46;;;;;;;3.90;3.30;;;2.50;85.70;;;;;;5118716;22;20256;-71
2021/03/21 07:45:28;;;;;;;4.10;3.00;;;2.50;85.80;;;;;;5028139;28;20291;-71
2021/03/21 07:48:09;;;;;;;3.63;3.10;;;2.50;84.90;;;;;;5049638;28;20197;-71
2021/03/21 07:50:55;;;;;;;4.43;3.00;;;2.60;85.00;;;;;;5049212;28;20211;-72
2021/03/21 07:53:28;;;;;;;3.80;3.13;;;2.70;85.90;;;;;;5049311;28;20204;-72
2021/03/21 07:56:00;;;;;;;4.53;3.50;;;2.70;85.50;;;;;;5049888;28;20198;-72
2021/03/21 07:58:36;;;;;;;3.38;2.67;;;2.70;85.10;;;;;;5049288;28;20673;-72
2021/03/21 08:01:03;;;;;;;5.40;3.65;;;2.70;86.00;;;;;;5049560;28;20220;-73
2021/03/21 08:03:52;;;;;;;4.32;3.25;;;2.80;85.50;;;;;;5049276;28;20204;-74
2021/03/21 08:06:27;;;;;;;4.00;3.70;;;2.80;85.40;;;;;;5049517;28;20225;-72
2021/03/21 08:09:04;;;;;;;3.63;3.20;;;2.90;85.70;;;;;;5049235;28;20200;-71
2021/03/21 08:11:32;;;;;;;4.60;3.40;;;2.90;85.70;;;;;;5049322;28;20563;-73
2021/03/21 08:14:10;;;;;;;6.93;3.90;;;2.90;85.90;;;;;;5049302;28;20197;-73
2021/03/21 08:16:42;;;;;;;4.72;4.18;;;3.00;85.50;;;;;;5049110;28;20196;-73
2021/03/21 08:19:13;;;;;;;5.15;3.58;;;3.00;86.40;;;;;;5056386;28;20230;-73
2021/03/21 08:21:39;;;;;;;4.65;3.10;;;3.10;86.20;;;;;;5066386;28;20216;-73
2021/03/21 08:24:13;;;;;;;3.40;3.10;;;3.00;85.80;;;;;;5066513;28;20204;-71
2021/03/21 08:26:42;;;;;;;4.80;3.67;;;3.10;86.40;;;;;;5062179;28;20219;-73
2021/03/21 08:29:12;;;;;;;4.72;3.70;;;3.10;86.60;;;;;;5050767;28;20205;-73
2021/03/21 08:31:41;;;;;;;3.40;3.10;;;3.20;87.70;;;;;;5057168;28;20213;-73
2021/03/21 08:34:39;;;;;;;4.80;3.75;;;3.20;86.30;;;;;;5051045;28;20208;-74
2021/03/21 08:37:33;;;;;;;6.10;3.63;;;3.30;85.80;;;;;;5043919;28;20200;-74
2021/03/21 08:40:10;;;;;;;3.80;2.70;;;3.30;85.50;;;;;;5053901;28;20265;-75
2021/03/21 08:42:41;;;;;;;4.75;3.20;;;3.40;86.50;;;;;;5055054;28;20716;-73
2021/03/21 08:45:33;;;;;;;4.78;3.67;;;3.40;86.00;;;;;;5047717;28;20262;-72
2021/03/21 08:48:20;;;;;;;3.85;3.30;;;3.50;85.70;;;;;;5050917;28;20205;-73
2021/03/21 08:50:49;;;;;;;5.00;3.50;;;3.70;86.20;;;;;;5050990;28;20197;-72
2021/03/21 08:53:31;;;;;;;4.88;3.90;;;3.80;85.90;;;;;;5050631;28;20238;-73
2021/03/21 08:56:19;;;;;;;5.35;3.17;;;3.80;85.60;;;;;;5059098;28;20203;-72
2021/03/21 08:58:47;;;;;;;4.07;3.50;;;3.80;85.00;;;;;;5059933;28;20200;-72
2021/03/21 09:01:21;;;;;;;3.50;3.20;;;3.90;85.20;;;;;;5048080;28;20312;-73
2021/03/21 09:03:48;;;;;;;4.05;3.00;;;3.90;85.70;;;;;;5053069;28;20208;-73
2021/03/21 09:06:29;;;;;;;4.43;3.15;;;4.00;85.30;;;;;;5046124;28;20715;-72
2021/03/21 09:09:15;;;;;;;6.40;3.42;;;4.10;84.80;;;;;;5057483;28;20230;-73
2021/03/21 09:11:45;;;;;;;5.70;3.38;;;3.90;84.70;;;;;;5055128;28;20252;-74
2021/03/21 09:14:20;;;;;;;4.20;3.17;;;3.90;84.50;;;;;;5059195;28;20225;-73
2021/03/21 09:16:57;;;;;;;4.32;3.30;;;3.90;84.20;;;;;;5061464;28;20193;-73
2021/03/21 09:19:27;;;;;;;7.03;3.40;;;4.00;84.20;;;;;;5054643;28;20192;-73
2021/03/21 09:22:00;;;;;;;4.78;3.40;;;4.00;84.40;;;;;;5060443;28;20216;-73
2021/03/21 09:24:29;;;;;;;5.82;3.90;;;4.00;84.40;;;;;;5064079;28;20212;-73
2021/03/21 09:27:15;;;;;;;3.80;3.40;;;4.00;84.30;;;;;;5060819;28;20224;-72
2021/03/21 09:29:42;;;;;;;3.70;3.30;;;3.90;84.20;;;;;;5051681;28;20630;-73
2021/03/21 09:32:21;;;;;;;5.05;3.50;;;3.90;84.00;;;;;;5058614;28;20227;-73
2021/03/21 09:34:57;;;;;;;4.45;3.90;;;4.00;84.80;;;;;;5050532;28;20576;-72
2021/03/21 09:37:28;;;;;;;4.47;3.60;;;3.90;83.50;;;;;;5054175;28;20200;-74
2021/03/21 09:40:01;;;;;;;5.72;3.95;;;3.90;84.30;;;;;;5057668;28;20201;-73
2021/03/21 09:42:35;;;;;;;4.93;3.75;;;4.00;84.80;;;;;;5059930;28;20788;-75
2021/03/21 09:45:04;;;;;;;5.53;3.10;;;4.00;84.10;;;;;;5062700;28;20204;-77
2021/03/21 09:47:37;;;;;;;4.65;3.30;;;4.00;84.20;;;;;;5063035;28;20264;-74
2021/03/21 09:50:30;;;;;;;4.75;3.88;;;4.10;84.20;;;;;;5057860;28;20254;-76
2021/03/21 09:53:07;;;;;;;4.45;3.47;;;4.10;84.80;;;;;;5058905;28;20196;-73
2021/03/21 09:55:44;;;;;;;4.97;4.00;;;4.20;84.60;;;;;;5056299;28;20922;-74
2021/03/21 09:58:37;;;;;;;4.82;4.32;;;4.20;84.50;;;;;;5056371;28;20224;-73
2021/03/21 10:01:12;;;;;;;8.00;4.22;;;4.20;84.40;;;;;;5056657;28;20216;-72
2021/03/21 10:03:46;;;;;;;6.78;4.00;;;4.30;84.60;;;;;;5059542;28;20200;-72
2021/03/21 10:06:22;;;;;;;4.63;3.50;;;4.40;85.10;;;;;;5059368;28;20220;-72
2021/03/21 10:08:56;;;;;;;5.95;4.18;;;4.50;84.10;;;;;;5056187;28;20282;-72
2021/03/21 10:11:27;;;;;;;6.28;4.00;;;4.60;83.80;;;;;;5053565;28;20600;-74
2021/03/21 10:13:53;;;;;;;5.45;4.30;;;4.60;84.50;;;;;;5058140;28;20197;-73
2021/03/21 10:16:34;;;;;;;4.93;3.60;;;4.70;84.70;;;;;;5051153;28;20196;-74
2021/03/21 10:19:06;;;;;;;4.75;4.35;;;4.70;84.30;;;;;;5055098;28;20299;-71
2021/03/21 10:21:38;;;;;;;4.82;3.75;;;4.70;84.60;;;;;;5062369;28;20224;-74
2021/03/21 10:24:29;;;;;;;5.38;4.30;;;4.70;85.30;;;;;;5057543;28;20219;-74
2021/03/21 10:27:38;;;;;;;5.88;5.00;;;4.80;84.60;;;;;;5063703;28;20590;-72
2021/03/21 10:30:20;;;;;;;8.48;5.80;;;4.90;88.90;;;;;;5057517;28;20204;-72
2021/03/21 10:32:49;;;;;;;6.90;5.05;;;5.00;88.70;;;;;;5067676;28;20220;-72
2021/03/21 10:35:49;;;;;;;7.70;5.60;;;5.00;89.30;;;;;;5062316;28;20270;-73
2021/03/21 10:38:55;;;;;;;6.97;5.53;;;5.00;90.50;;;;;;5052019;28;20208;-73
2021/03/21 10:41:57;;;;;;;7.65;5.40;;;5.10;90.50;;;;;;5041759;28;20305;-74
2021/03/21 10:44:58;;;;;;;8.88;6.47;;;5.30;90.80;;;;;;5064057;28;20251;-73
2021/03/21 10:47:46;;;;;;;6.25;5.63;;;5.40;90.30;;;;;;5063881;28;20249;-73
2021/03/21 10:50:33;;;;;;;7.68;5.63;;;5.50;90.70;;;;;;5056651;28;20200;-73
2021/03/21 10:53:22;;;;;;;7.25;6.18;;;5.70;91.10;;;;;;5054629;28;20593;-74
2021/03/21 10:56:05;;;;;;;7.60;6.03;;;5.90;91.40;;;;;;5056514;28;20212;-72
2021/03/21 10:59:14;;;;;;;11.55;6.35;;;5.90;91.70;;;;;;5063210;28;20224;-71
2021/03/21 11:01:42;;;;;;;7.25;6.30;;;5.90;92.20;;;;;;5065037;28;20228;-73
2021/03/21 11:04:23;;;;;;;7.93;6.63;;;5.80;92.50;;;;;;5063446;28;20215;-73
2021/03/21 11:06:53;;;;;;;10.18;7.20;;;5.80;93.20;;;;;;5067501;28;20311;-73
2021/03/21 11:09:21;;;;;;;9.13;7.55;;;5.80;94.70;;;;;;5051530;28;20201;-74
2021/03/21 11:11:49;;;;;;;10.57;8.13;;;5.80;95.30;;;;;;5066091;28;20227;-73
2021/03/21 11:14:22;;;;;;;8.70;7.35;;;5.80;94.10;;;;;;5072226;28;20262;-72
2021/03/21 11:16:51;;;;;;;10.82;7.93;;;5.80;94.20;;;;;;5071364;28;20208;-73
2021/03/21 11:19:18;;;;;;;10.20;8.48;;;5.70;94.30;;;;;;5071600;28;20197;-73
2021/03/21 11:21:44;;;;;;;9.38;7.43;;;5.80;94.20;;;;;;5071866;28;20319;-74
2021/03/21 11:24:24;;;;;;;12.07;7.60;;;6.00;94.20;;;;;;5071458;28;20200;-73
2021/03/21 11:26:50;;;;;;;11.27;7.97;;;6.00;93.30;;;;;;5071786;28;20243;-73
2021/03/21 11:29:26;;;;;;;9.20;8.18;;;6.10;93.20;;;;;;5070580;28;20196;-73
2021/03/21 11:31:58;;;;;;;9.18;7.65;;;6.20;92.60;;;;;;5069958;28;20277;-74
2021/03/21 11:34:27;;;;;;;8.90;7.03;;;6.30;92.10;;;;;;5070009;28;20231;-74
2021/03/21 11:37:00;;;;;;;8.88;7.45;;;6.30;91.70;;;;;;5069652;28;20201;-73
2021/03/21 11:39:32;;;;;;;9.07;6.68;;;6.20;92.10;;;;;;5068987;28;20205;-72
2021/03/21 11:42:00;;;;;;;9.13;7.00;;;6.20;92.00;;;;;;5069605;28;20650;-75
2021/03/21 11:44:30;;;;;;;7.28;6.55;;;6.10;91.80;;;;;;5069331;28;20204;-72
2021/03/21 11:47:10;;;;;;;6.95;6.25;;;6.10;92.00;;;;;;5069566;28;20591;-72
2021/03/21 11:49:36;;;;;;;9.13;6.20;;;6.00;92.20;;;;;;5068180;28;20204;-73
2021/03/21 11:52:05;;;;;;;7.35;6.32;;;6.10;92.10;;;;;;5069228;28;20228;-72
2021/03/21 11:54:34;;;;;;;11.35;6.53;;;6.00;92.40;;;;;;5069245;28;20197;-72
2021/03/21 11:57:14;;;;;;;7.45;6.50;;;6.00;92.50;;;;;;5069476;28;20196;-73
2021/03/21 11:59:50;;;;;;;10.18;6.90;;;6.20;92.60;;;;;;5069311;28;20211;-73
2021/03/21 12:02:39;;;;;;;8.95;6.32;;;6.20;92.60;;;;;;5070073;28;20707;-72
2021/03/21 12:05:11;;;;;;;8.10;5.95;;;6.20;92.40;;;;;;5063894;28;20729;-73
2021/03/21 12:07:38;;;;;;;8.05;6.22;;;6.10;92.20;;;;;;5069361;28;20564;-73
2021/03/21 12:10:06;;;;;;;8.07;6.80;;;6.00;92.50;;;;;;5068333;28;20299;-75
2021/03/21 12:12:41;;;;;;;7.90;6.13;;;6.00;92.40;;;;;;5063672;28;20227;-72
2021/03/21 12:15:15;;;;;;;7.20;6.07;;;6.00;92.90;;;;;;5068026;28;20204;-72
2021/03/21 12:17:42;;;;;;;9.02;6.50;;;6.00;92.70;;;;;;5067998;28;20203;-72
2021/03/21 12:20:48;;;;;;;7.25;6.32;;;6.00;92.70;;;;;;5068950;28;20215;-73
2021/03/21 12:23:31;;;;;;;7.95;5.53;;;6.00;93.00;;;;;;4986295;28;20203;-76
2021/03/21 12:26:16;;;;;;;9.68;6.35;;;5.90;93.40;;;;;;5057163;28;20727;-73
2021/03/21 12:29:01;;;;;;;7.55;6.18;;;5.80;93.60;;;;;;5062250;28;20192;-72
2021/03/21 12:31:34;;;;;;;5.35;4.82;;;5.90;93.70;;;;;;5070266;28;20224;-73
2021/03/21 12:34:22;;;;;;;5.18;4.45;;;5.90;94.20;;;;;;5069511;28;20570;-73
2021/03/21 12:37:07;;;;;;;7.28;5.45;;;5.90;94.50;;;;;;5069275;28;20560;-72
2021/03/21 12:39:36;;;;;;;5.78;4.70;;;5.90;94.80;;;;;;5072780;28;20210;-72
2021/03/21 12:42:04;;;;;;;4.40;3.92;;;5.90;95.30;;;;;;5075797;28;20251;-72
2021/03/21 12:44:31;;;;;;;7.75;4.82;;;6.10;95.80;;;;;;5075785;28;20208;-76
2021/03/21 12:47:03;;;;;;;5.93;4.22;;;6.30;96.00;;;;;;5075943;28;20319;-71
2021/03/21 12:49:36;;;;;;;3.65;3.30;;;6.50;95.60;;;;;;5075260;28;20409;-72
2021/03/21 12:52:06;;;;;;;4.20;3.25;;;6.60;95.50;;;;;;5076067;28;20224;-72
2021/03/21 12:54:32;;;;;;;3.67;2.90;;;6.60;95.70;;;;;;5076064;28;20294;-73
2021/03/21 12:56:59;;;;;;;5.05;3.50;;;6.50;96.20;;;;;;5059516;28;20562;-72
2021/03/21 12:59:25;;;;;;;3.50;2.83;;;6.40;96.60;;;;;;5075844;28;20203;-72
2021/03/21 13:01:51;;;;;;;5.60;4.20;;;6.40;96.80;;;;;;5075901;28;20224;-73
2021/03/21 13:04:18;;;;;;;8.82;5.35;;;6.40;97.30;;;;;;5076729;28;20196;-72
2021/03/21 13:06:45;;;;;;;5.45;4.13;;;6.40;97.80;;;;;;5078047;28;20251;-72
2021/03/21 13:09:11;;;;;;;4.10;3.70;;;6.40;98.00;;;;;;5086457;28;20204;-73
2021/03/21 13:11:38;;;;;;;4.30;3.90;;;6.60;97.80;;;;;;5100116;28;20227;-75
2021/03/21 13:14:05;;;;;;;3.40;3.10;;;6.70;97.60;;;;;;5099054;28;20259;-75
2021/03/21 13:16:32;;;;;;;3.90;3.40;;;6.70;97.60;;;;;;5085520;28;20568;-72
2021/03/21 13:18:58;;;;;;;3.50;3.20;;;6.80;97.60;;;;;;5075051;28;20204;-74
2021/03/21 13:21:26;;;;;;;3.70;3.33;;;6.80;97.70;;;;;;5080421;28;20220;-73
2021/03/21 13:23:52;;;;;;;4.57;3.80;;;6.90;97.60;;;;;;5076756;28;20258;-73
2021/03/21 13:26:18;;;;;;;3.65;3.35;;;6.90;97.50;;;;;;5075879;28;20223;-74
2021/03/21 13:28:45;;;;;;;5.80;4.20;;;6.90;97.60;;;;;;5074811;28;20254;-74
2021/03/21 13:31:11;;;;;;;4.65;4.05;;;6.90;97.60;;;;;;5076267;28;20224;-75
2021/03/21 13:33:38;;;;;;;5.03;3.65;;;6.70;97.80;;;;;;5076505;28;20204;-73
2021/03/21 13:36:07;;;;;;;4.53;4.05;;;6.60;98.10;;;;;;5076874;28;20204;-73
2021/03/21 13:38:36;;;;;;;4.75;4.00;;;6.50;98.20;;;;;;5075784;28;20257;-73
2021/03/21 13:41:04;;;;;;;4.75;4.13;;;6.40;98.20;;;;;;5075515;28;20727;-74
2021/03/21 13:43:31;;;;;;;4.85;4.15;;;6.40;98.40;;;;;;5076522;28;20262;-73
2021/03/21 13:45:58;;;;;;;4.03;3.42;;;6.40;98.50;;;;;;5075723;28;20595;-73